sensor_id;sensor_type;location;lat;lon;timestamp;pressure;altitude;pressure_sealevel;temperature;humidity
18509;BME280;9383;50.928;12.116;2023-09-19T00:01:34;98100.47;;;16.61;100.00
18509;BME280;9383;50.928;12.116;2023-09-19T00:04:01;98095.13;;;16.61;100.00
18509;BME280;9383;50.928;12.116;2023-09-19T00:06:35;98109.47;;;16.60;100.00
18509;BME280;9383;50.928;12.116;2023-09-19T00:09:02;98100.72;;;16.58;100.00
18509;BME280;9383;50.928;12.116;2023-09-19T00:11:29;98101.69;;;16.57;100.00
18509;BME280;9383;50.928;12.116;2023-09-19T00:13:57;98099.84;;;16.57;100.00
18509;BME280;9383;50.928;12.116;2023-09-19T00:16:26;98094.63;;;16.56;100.00
18509;BME280;9383;50.928;12.116;2023-09-19T00:18:53;98092.78;;;16.56;100.00
18509;BME280;9383;50.928;12.116;2023-09-19T00:21:20;98100.09;;;16.54;100.00
18509;BME280;9383;50.928;12.116;2023-09-19T00:23:50;98087.78;;;16.52;100.00
18509;BME280;9383;50.928;12.116;2023-09-19T00:26:22;98084.38;;;16.50;100.00
18509;BME280;9383;50.928;12.116;2023-09-19T00:28:55;98102.34;;;16.48;100.00
18509;BME280;9383;50.928;12.116;2023-09-19T00:31:23;98092.72;;;16.45;100.00
18509;BME280;9383;50.928;12.116;2023-09-19T00:33:52;98101.72;;;16.44;100.00
18509;BME280;9383;50.928;12.116;2023-09-19T00:36:19;98103.75;;;16.40;100.00
18509;BME280;9383;50.928;12.116;2023-09-19T00:38:46;98103.00;;;16.38;100.00
18509;BME280;9383;50.928;12.116;2023-09-19T00:41:16;98106.66;;;16.37;100.00
18509;BME280;9383;50.928;12.116;2023-09-19T00:44:02;98109.44;;;16.36;100.00
18509;BME280;9383;50.928;12.116;2023-09-19T00:46:30;98108.69;;;16.34;100.00
18509;BME280;9383;50.928;12.116;2023-09-19T00:48:59;98108.81;;;16.32;100.00
18509;BME280;9383;50.928;12.116;2023-09-19T00:51:27;98101.78;;;16.31;100.00
18509;BME280;9383;50.928;12.116;2023-09-19T00:53:54;98113.53;;;16.28;100.00
18509;BME280;9383;50.928;12.116;2023-09-19T00:56:21;98111.81;;;16.27;100.00
18509;BME280;9383;50.928;12.116;2023-09-19T00:58:50;98111.91;;;16.26;100.00
18509;BME280;9383;50.928;12.116;2023-09-19T01:01:17;98112.16;;;16.23;100.00
18509;BME280;9383;50.928;12.116;2023-09-19T01:03:44;98119.31;;;16.22;100.00
18509;BME280;9383;50.928;12.116;2023-09-19T01:06:11;98118.56;;;16.20;100.00
18509;BME280;9383;50.928;12.116;2023-09-19T01:08:39;98119.53;;;16.19;100.00
18509;BME280;9383;50.928;12.116;2023-09-19T01:11:14;98124.88;;;16.19;100.00
18509;BME280;9383;50.928;12.116;2023-09-19T01:13:56;98123.41;;;16.15;100.00
18509;BME280;9383;50.928;12.116;2023-09-19T01:22:42;98134.09;;;16.02;100.00
18509;BME280;9383;50.928;12.116;2023-09-19T01:28:11;98132.84;;;15.95;100.00
18509;BME280;9383;50.928;12.116;2023-09-19T01:30:44;98140.13;;;15.93;100.00
18509;BME280;9383;50.928;12.116;2023-09-19T01:33:18;98145.66;;;15.89;100.00
18509;BME280;9383;50.928;12.116;2023-09-19T01:35:44;98140.31;;;15.89;100.00
18509;BME280;9383;50.928;12.116;2023-09-19T01:38:11;98138.38;;;15.92;100.00
18509;BME280;9383;50.928;12.116;2023-09-19T01:40:45;98140.13;;;15.93;100.00
18509;BME280;9383;50.928;12.116;2023-09-19T01:43:27;98144.50;;;15.94;100.00
18509;BME280;9383;50.928;12.116;2023-09-19T01:46:07;98152.50;;;15.94;100.00
18509;BME280;9383;50.928;12.116;2023-09-19T01:48:52;98149.94;;;15.92;100.00
18509;BME280;9383;50.928;12.116;2023-09-19T01:54:03;98150.13;;;15.89;100.00
18509;BME280;9383;50.928;12.116;2023-09-19T01:56:56;98153.75;;;15.88;100.00
18509;BME280;9383;50.928;12.116;2023-09-19T01:59:29;98160.16;;;15.85;100.00
18509;BME280;9383;50.928;12.116;2023-09-19T02:01:58;98168.28;;;15.84;100.00
18509;BME280;9383;50.928;12.116;2023-09-19T02:04:33;98177.16;;;15.84;100.00
18509;BME280;9383;50.928;12.116;2023-09-19T02:07:07;98162.31;;;15.80;100.00
18509;BME280;9383;50.928;12.116;2023-09-19T02:09:34;98174.38;;;15.86;100.00
18509;BME280;9383;50.928;12.116;2023-09-19T02:12:02;98172.56;;;15.86;100.00
18509;BME280;9383;50.928;12.116;2023-09-19T02:14:32;98180.50;;;15.88;100.00
18509;BME280;9383;50.928;12.116;2023-09-19T02:16:59;98175.97;;;15.88;100.00
18509;BME280;9383;50.928;12.116;2023-09-19T02:19:27;98177.91;;;15.86;100.00
18509;BME280;9383;50.928;12.116;2023-09-19T02:21:56;98181.53;;;15.85;100.00
18509;BME280;9383;50.928;12.116;2023-09-19T02:24:23;98186.88;;;15.85;100.00
18509;BME280;9383;50.928;12.116;2023-09-19T02:26:53;98181.53;;;15.85;100.00
18509;BME280;9383;50.928;12.116;2023-09-19T02:29:42;98190.53;;;15.84;100.00
18509;BME280;9383;50.928;12.116;2023-09-19T02:32:09;98193.19;;;15.84;100.00
18509;BME280;9383;50.928;12.116;2023-09-19T02:34:37;98188.69;;;15.85;100.00
18509;BME280;9383;50.928;12.116;2023-09-19T02:37:08;98186.88;;;15.85;100.00
18509;BME280;9383;50.928;12.116;2023-09-19T02:39:35;98194.91;;;15.85;100.00
18509;BME280;9383;50.928;12.116;2023-09-19T02:42:03;98186.03;;;15.85;100.00
18509;BME280;9383;50.928;12.116;2023-09-19T02:44:31;98195.75;;;15.86;100.00
18509;BME280;9383;50.928;12.116;2023-09-19T02:46:59;98196.63;;;15.86;100.00
18509;BME280;9383;50.928;12.116;2023-09-19T02:49:26;98194.81;;;15.87;100.00
18509;BME280;9383;50.928;12.116;2023-09-19T02:51:52;98203.75;;;15.86;100.00
18509;BME280;9383;50.928;12.116;2023-09-19T02:54:20;98200.25;;;15.85;100.00
18509;BME280;9383;50.928;12.116;2023-09-19T02:56:46;98201.22;;;15.84;100.00
18509;BME280;9383;50.928;12.116;2023-09-19T02:59:13;98196.84;;;15.83;100.00
18509;BME280;9383;50.928;12.116;2023-09-19T03:01:43;98195.13;;;15.82;100.00
18509;BME280;9383;50.928;12.116;2023-09-19T03:04:10;98194.38;;;15.80;100.00
18509;BME280;9383;50.928;12.116;2023-09-19T03:06:39;98201.63;;;15.78;100.00
18509;BME280;9383;50.928;12.116;2023-09-19T03:09:06;98194.78;;;15.74;100.00
18509;BME280;9383;50.928;12.116;2023-09-19T03:11:40;98195.00;;;15.71;100.00
18509;BME280;9383;50.928;12.116;2023-09-19T03:14:08;98192.56;;;15.68;100.00
18509;BME280;9383;50.928;12.116;2023-09-19T03:16:39;98207.81;;;15.66;100.00
18509;BME280;9383;50.928;12.116;2023-09-19T03:19:06;98203.63;;;15.61;100.00
18509;BME280;9383;50.928;12.116;2023-09-19T03:21:33;98202.88;;;15.59;100.00
18509;BME280;9383;50.928;12.116;2023-09-19T03:24:02;98202.22;;;15.56;100.00
18509;BME280;9383;50.928;12.116;2023-09-19T03:26:29;98201.56;;;15.52;100.00
18509;BME280;9383;50.928;12.116;2023-09-19T03:28:56;98211.50;;;15.50;100.00
18509;BME280;9383;50.928;12.116;2023-09-19T03:31:23;98206.16;;;15.50;100.00
18509;BME280;9383;50.928;12.116;2023-09-19T03:33:50;98209.91;;;15.47;100.00
18509;BME280;9383;50.928;12.116;2023-09-19T03:36:16;98219.84;;;15.45;100.00
18509;BME280;9383;50.928;12.116;2023-09-19T03:38:43;98216.50;;;15.42;100.00
18509;BME280;9383;50.928;12.116;2023-09-19T03:41:10;98223.75;;;15.40;100.00
18509;BME280;9383;50.928;12.116;2023-09-19T03:43:40;98214.16;;;15.37;100.00
18509;BME280;9383;50.928;12.116;2023-09-19T03:46:07;98223.22;;;15.35;100.00
18509;BME280;9383;50.928;12.116;2023-09-19T03:48:34;98217.13;;;15.32;100.00
18509;BME280;9383;50.928;12.116;2023-09-19T03:51:01;98222.66;;;15.29;100.00
18509;BME280;9383;50.928;12.116;2023-09-19T03:53:29;98222.78;;;15.28;100.00
18509;BME280;9383;50.928;12.116;2023-09-19T03:55:56;98224.56;;;15.27;100.00
18509;BME280;9383;50.928;12.116;2023-09-19T03:58:24;98224.56;;;15.27;100.00
18509;BME280;9383;50.928;12.116;2023-09-19T04:00:54;98229.06;;;15.27;100.00
18509;BME280;9383;50.928;12.116;2023-09-19T04:03:23;98218.41;;;15.27;100.00
18509;BME280;9383;50.928;12.116;2023-09-19T04:05:51;98222.88;;;15.26;100.00
18509;BME280;9383;50.928;12.116;2023-09-19T04:08:18;98226.41;;;15.27;100.00
18509;BME280;9383;50.928;12.116;2023-09-19T04:10:45;98225.44;;;15.28;100.00
18509;BME280;9383;50.928;12.116;2023-09-19T04:13:12;98230.78;;;15.28;100.00
18509;BME280;9383;50.928;12.116;2023-09-19T04:15:39;98236.00;;;15.29;100.00
18509;BME280;9383;50.928;12.116;2023-09-19T04:18:12;98233.16;;;15.32;100.00
18509;BME280;9383;50.928;12.116;2023-09-19T04:20:38;98232.19;;;15.33;100.00
18509;BME280;9383;50.928;12.116;2023-09-19T04:23:05;98243.63;;;15.36;100.00
18509;BME280;9383;50.928;12.116;2023-09-19T04:25:33;98191.41;;;15.04;100.00
18509;BME280;9383;50.928;12.116;2023-09-19T04:28:00;98249.84;;;15.36;100.00
18509;BME280;9383;50.928;12.116;2023-09-19T04:30:27;98253.34;;;15.37;100.00
18509;BME280;9383;50.928;12.116;2023-09-19T04:32:54;98252.41;;;15.38;100.00
18509;BME280;9383;50.928;12.116;2023-09-19T04:35:21;98255.19;;;15.36;100.00
18509;BME280;9383;50.928;12.116;2023-09-19T04:37:49;98249.84;;;15.36;100.00
18509;BME280;9383;50.928;12.116;2023-09-19T04:40:17;98257.94;;;15.35;100.00
18509;BME280;9383;50.928;12.116;2023-09-19T04:42:44;98262.53;;;15.32;100.00
18509;BME280;9383;50.928;12.116;2023-09-19T04:45:12;98260.91;;;15.30;100.00
18509;BME280;9383;50.928;12.116;2023-09-19T04:47:39;98272.63;;;15.27;100.00
18509;BME280;9383;50.928;12.116;2023-09-19T04:50:09;98278.19;;;15.24;100.00
18509;BME280;9383;50.928;12.116;2023-09-19T04:52:49;98280.09;;;15.22;100.00
18509;BME280;9383;50.928;12.116;2023-09-19T04:55:19;98279.34;;;15.20;100.00
18509;BME280;9383;50.928;12.116;2023-09-19T04:57:50;98270.59;;;15.18;100.00
18509;BME280;9383;50.928;12.116;2023-09-19T05:00:21;98276.91;;;15.17;100.00
18509;BME280;9383;50.928;12.116;2023-09-19T05:02:52;98275.16;;;15.16;100.00
18509;BME280;9383;50.928;12.116;2023-09-19T05:05:19;98273.44;;;15.15;100.00
18509;BME280;9383;50.928;12.116;2023-09-19T05:07:46;98270.00;;;15.13;100.00
18509;BME280;9383;50.928;12.116;2023-09-19T05:10:14;98269.19;;;15.12;100.00
18509;BME280;9383;50.928;12.116;2023-09-19T05:12:41;98272.88;;;15.10;100.00
18509;BME280;9383;50.928;12.116;2023-09-19T05:15:09;98278.31;;;15.08;100.00
18509;BME280;9383;50.928;12.116;2023-09-19T05:17:37;98281.94;;;15.07;100.00
18509;BME280;9383;50.928;12.116;2023-09-19T05:20:05;98216.81;;;14.68;100.00
18509;BME280;9383;50.928;12.116;2023-09-19T05:22:33;98280.44;;;15.03;100.00
18509;BME280;9383;50.928;12.116;2023-09-19T05:25:03;98277.84;;;15.01;100.00
18509;BME280;9383;50.928;12.116;2023-09-19T05:27:33;98282.44;;;14.99;100.00
18509;BME280;9383;50.928;12.116;2023-09-19T05:30:03;98279.97;;;14.96;100.00
18509;BME280;9383;50.928;12.116;2023-09-19T05:32:34;98281.88;;;14.94;100.00
18509;BME280;9383;50.928;12.116;2023-09-19T05:35:05;98282.06;;;14.91;100.00
18509;BME280;9383;50.928;12.116;2023-09-19T05:37:36;98290.19;;;14.89;100.00
18509;BME280;9383;50.928;12.116;2023-09-19T05:40:06;98283.22;;;14.87;100.00
18509;BME280;9383;50.928;12.116;2023-09-19T05:42:34;98288.56;;;14.87;100.00
18509;BME280;9383;50.928;12.116;2023-09-19T05:45:03;98291.22;;;14.87;100.00
18509;BME280;9383;50.928;12.116;2023-09-19T05:47:32;98294.00;;;14.85;100.00
18509;BME280;9383;50.928;12.116;2023-09-19T05:49:59;98305.53;;;14.86;100.00
18509;BME280;9383;50.928;12.116;2023-09-19T05:52:26;98307.44;;;14.84;100.00
18509;BME280;9383;50.928;12.116;2023-09-19T05:54:52;98307.53;;;14.82;100.00
18509;BME280;9383;50.928;12.116;2023-09-19T05:57:19;98310.09;;;14.84;100.00
18509;BME280;9383;50.928;12.116;2023-09-19T05:59:46;98311.06;;;14.83;100.00
18509;BME280;9383;50.928;12.116;2023-09-19T06:02:19;98311.06;;;14.83;100.00
18509;BME280;9383;50.928;12.116;2023-09-19T06:04:46;98327.06;;;14.83;100.00
18509;BME280;9383;50.928;12.116;2023-09-19T06:07:12;98326.13;;;14.84;100.00
18509;BME280;9383;50.928;12.116;2023-09-19T06:09:40;98328.78;;;14.84;100.00
18509;BME280;9383;50.928;12.116;2023-09-19T06:12:08;98326.03;;;14.85;100.00
18509;BME280;9383;50.928;12.116;2023-09-19T06:14:35;98335.84;;;14.85;100.00
18509;BME280;9383;50.928;12.116;2023-09-19T06:17:03;98338.31;;;14.88;100.00
18509;BME280;9383;50.928;12.116;2023-09-19T06:19:30;98341.72;;;14.90;100.00
18509;BME280;9383;50.928;12.116;2023-09-19T06:21:58;98351.28;;;14.94;100.00
18509;BME280;9383;50.928;12.116;2023-09-19T06:24:26;98360.59;;;15.01;100.00
18509;BME280;9383;50.928;12.116;2023-09-19T06:26:52;98343.34;;;15.07;100.00
18509;BME280;9383;50.928;12.116;2023-09-19T06:29:20;98346.47;;;15.14;100.00
18509;BME280;9383;50.928;12.116;2023-09-19T06:31:47;98349.59;;;15.21;100.00
18509;BME280;9383;50.928;12.116;2023-09-19T06:34:14;98358.19;;;15.26;100.00
18509;BME280;9383;50.928;12.116;2023-09-19T06:36:43;98357.78;;;15.32;100.00
18509;BME280;9383;50.928;12.116;2023-09-19T06:39:11;98359.97;;;15.40;100.00
18509;BME280;9383;50.928;12.116;2023-09-19T06:41:38;98356.63;;;15.51;100.00
18509;BME280;9383;50.928;12.116;2023-09-19T06:44:06;98356.88;;;15.60;100.00
18509;BME280;9383;50.928;12.116;2023-09-19T06:46:34;98358.84;;;15.71;100.00
18509;BME280;9383;50.928;12.116;2023-09-19T06:49:01;98367.13;;;15.81;100.00
18509;BME280;9383;50.928;12.116;2023-09-19T06:51:33;98369.84;;;15.94;100.00
18509;BME280;9383;50.928;12.116;2023-09-19T06:54:01;98370.00;;;16.06;100.00
18509;BME280;9383;50.928;12.116;2023-09-19T06:56:29;98371.75;;;16.20;100.00
18509;BME280;9383;50.928;12.116;2023-09-19T06:58:55;98375.31;;;16.33;100.00
18509;BME280;9383;50.928;12.116;2023-09-19T07:01:22;98373.38;;;16.48;100.00
18509;BME280;9383;50.928;12.116;2023-09-19T07:03:49;98376.00;;;16.63;100.00
18509;BME280;9383;50.928;12.116;2023-09-19T07:06:16;98389.06;;;16.80;100.00
18509;BME280;9383;50.928;12.116;2023-09-19T07:08:45;98377.38;;;16.94;100.00
18509;BME280;9383;50.928;12.116;2023-09-19T07:11:12;98378.03;;;17.11;100.00
18509;BME280;9383;50.928;12.116;2023-09-19T07:13:41;98381.44;;;17.26;100.00
18509;BME280;9383;50.928;12.116;2023-09-19T07:16:07;98379.47;;;17.41;100.00
18509;BME280;9383;50.928;12.116;2023-09-19T07:18:37;98373.84;;;17.57;100.00
18509;BME280;9383;50.928;12.116;2023-09-19T07:21:05;98372.94;;;17.69;100.00
18509;BME280;9383;50.928;12.116;2023-09-19T07:23:32;98384.81;;;17.78;100.00
18509;BME280;9383;50.928;12.116;2023-09-19T07:26:02;98390.47;;;17.86;100.00
18509;BME280;9383;50.928;12.116;2023-09-19T07:28:31;98388.06;;;17.95;99.13
18509;BME280;9383;50.928;12.116;2023-09-19T07:31:02;98402.72;;;18.02;98.20
18509;BME280;9383;50.928;12.116;2023-09-19T07:33:31;98409.41;;;18.09;97.11
18509;BME280;9383;50.928;12.116;2023-09-19T07:36:00;98414.41;;;18.14;96.34
18509;BME280;9383;50.928;12.116;2023-09-19T07:38:27;98413.94;;;18.20;93.30
18509;BME280;9383;50.928;12.116;2023-09-19T07:41:00;98418.00;;;18.26;91.15
18509;BME280;9383;50.928;12.116;2023-09-19T07:43:27;98423.00;;;18.31;89.69
18509;BME280;9383;50.928;12.116;2023-09-19T07:45:54;98431.56;;;18.36;88.62
18509;BME280;9383;50.928;12.116;2023-09-19T07:48:22;98432.94;;;18.41;87.63
18509;BME280;9383;50.928;12.116;2023-09-19T07:50:50;98443.81;;;18.51;87.22
18509;BME280;9383;50.928;12.116;2023-09-19T07:53:17;98446.66;;;18.61;87.20
18509;BME280;9383;50.928;12.116;2023-09-19T07:55:45;98452.06;;;18.73;86.71
18509;BME280;9383;50.928;12.116;2023-09-19T07:58:15;98465.63;;;18.82;86.13
18509;BME280;9383;50.928;12.116;2023-09-19T08:00:42;98462.47;;;18.89;85.16
18509;BME280;9383;50.928;12.116;2023-09-19T08:03:09;98470.78;;;18.97;84.12
18509;BME280;9383;50.928;12.116;2023-09-19T08:05:40;98480.25;;;19.03;81.62
18509;BME280;9383;50.928;12.116;2023-09-19T08:08:10;98477.19;;;19.07;79.92
18509;BME280;9383;50.928;12.116;2023-09-19T08:10:44;98485.63;;;19.14;79.93
18509;BME280;9383;50.928;12.116;2023-09-19T08:13:18;98480.75;;;19.19;79.50
18509;BME280;9383;50.928;12.116;2023-09-19T08:15:45;98480.38;;;19.24;78.78
18509;BME280;9383;50.928;12.116;2023-09-19T08:18:12;98485.41;;;19.29;78.23
18509;BME280;9383;50.928;12.116;2023-09-19T08:20:39;98485.28;;;19.30;77.57
18509;BME280;9383;50.928;12.116;2023-09-19T08:23:09;98481.38;;;19.34;78.21
18509;BME280;9383;50.928;12.116;2023-09-19T08:25:35;98470.53;;;19.36;77.61
18509;BME280;9383;50.928;12.116;2023-09-19T08:28:05;98480.28;;;19.37;76.95
18509;BME280;9383;50.928;12.116;2023-09-19T08:30:34;98481.28;;;19.36;75.92
18509;BME280;9383;50.928;12.116;2023-09-19T08:33:09;98475.03;;;19.35;76.09
18509;BME280;9383;50.928;12.116;2023-09-19T08:35:37;98477.59;;;19.37;75.89
18509;BME280;9383;50.928;12.116;2023-09-19T08:38:06;98482.72;;;19.40;75.21
18509;BME280;9383;50.928;12.116;2023-09-19T08:40:40;98477.97;;;19.44;75.09
18509;BME280;9383;50.928;12.116;2023-09-19T08:43:08;98475.75;;;19.49;74.91
18509;BME280;9383;50.928;12.116;2023-09-19T08:45:35;98475.16;;;19.57;75.52
18509;BME280;9383;50.928;12.116;2023-09-19T08:48:22;98478.81;;;19.67;76.02
18509;BME280;9383;50.928;12.116;2023-09-19T08:53:41;98482.72;;;19.86;72.97
18509;BME280;9383;50.928;12.116;2023-09-19T08:56:14;98489.22;;;19.94;72.15
18509;BME280;9383;50.928;12.116;2023-09-19T08:58:53;98494.81;;;20.03;71.24
18509;BME280;9383;50.928;12.116;2023-09-19T09:01:22;98488.81;;;20.10;70.48
18509;BME280;9383;50.928;12.116;2023-09-19T09:03:57;98479.63;;;20.13;68.47
18509;BME280;9383;50.928;12.116;2023-09-19T09:06:26;98481.94;;;20.18;68.56
18509;BME280;9383;50.928;12.116;2023-09-19T09:09:15;98483.16;;;20.25;69.33
18509;BME280;9383;50.928;12.116;2023-09-19T09:11:44;98482.38;;;20.34;69.58
18509;BME280;9383;50.928;12.116;2023-09-19T09:14:12;98477.22;;;20.43;69.06
18509;BME280;9383;50.928;12.116;2023-09-19T09:16:40;98474.03;;;20.49;68.57
18509;BME280;9383;50.928;12.116;2023-09-19T09:19:06;98467.13;;;20.56;69.07
18509;BME280;9383;50.928;12.116;2023-09-19T09:21:36;98468.78;;;20.69;69.10
18509;BME280;9383;50.928;12.116;2023-09-19T09:24:30;98468.63;;;20.82;69.11
18509;BME280;9383;50.928;12.116;2023-09-19T09:27:00;98474.91;;;20.92;68.48
18509;BME280;9383;50.928;12.116;2023-09-19T09:29:45;98479.91;;;20.97;66.95
18509;BME280;9383;50.928;12.116;2023-09-19T09:32:32;98485.06;;;21.00;66.00
18509;BME280;9383;50.928;12.116;2023-09-19T09:35:08;98480.25;;;21.03;64.66
18509;BME280;9383;50.928;12.116;2023-09-19T09:37:43;98482.09;;;21.03;63.50
18509;BME280;9383;50.928;12.116;2023-09-19T09:40:11;98498.25;;;21.03;63.27
18509;BME280;9383;50.928;12.116;2023-09-19T09:43:33;98496.22;;;20.95;63.50
18509;BME280;9383;50.928;12.116;2023-09-19T09:46:20;98495.50;;;20.93;63.28
18509;BME280;9383;50.928;12.116;2023-09-19T09:49:00;98493.06;;;20.90;62.05
18509;BME280;9383;50.928;12.116;2023-09-19T09:54:58;98493.78;;;20.92;62.19
18509;BME280;9383;50.928;12.116;2023-09-19T09:57:26;98499.03;;;20.93;61.31
18509;BME280;9383;50.928;12.116;2023-09-19T09:59:59;98502.47;;;20.96;60.51
18509;BME280;9383;50.928;12.116;2023-09-19T10:02:44;98494.84;;;21.01;61.32
18509;BME280;9383;50.928;12.116;2023-09-19T10:05:19;98498.59;;;21.10;61.67
18509;BME280;9383;50.928;12.116;2023-09-19T10:07:47;98505.28;;;21.15;60.99
18509;BME280;9383;50.928;12.116;2023-09-19T10:10:36;98501.81;;;21.25;61.78
18509;BME280;9383;50.928;12.116;2023-09-19T10:13:13;98506.06;;;21.27;62.05
18509;BME280;9383;50.928;12.116;2023-09-19T10:15:51;98503.69;;;21.34;62.27
18509;BME280;9383;50.928;12.116;2023-09-19T10:18:25;98500.88;;;21.35;60.73
18509;BME280;9383;50.928;12.116;2023-09-19T10:20:52;98503.56;;;21.35;61.23
18509;BME280;9383;50.928;12.116;2023-09-19T10:23:22;98511.53;;;21.37;60.95
18509;BME280;9383;50.928;12.116;2023-09-19T10:25:50;98510.06;;;21.33;60.66
18509;BME280;9383;50.928;12.116;2023-09-19T10:28:19;98506.72;;;21.19;59.02
18509;BME280;9383;50.928;12.116;2023-09-19T10:30:52;98510.22;;;21.10;58.91
18509;BME280;9383;50.928;12.116;2023-09-19T10:33:23;98513.19;;;21.07;58.65
18509;BME280;9383;50.928;12.116;2023-09-19T10:35:52;98511.94;;;21.11;59.23
18509;BME280;9383;50.928;12.116;2023-09-19T10:38:28;98507.28;;;21.13;57.27
18509;BME280;9383;50.928;12.116;2023-09-19T10:40:58;98505.75;;;21.20;55.98
18509;BME280;9383;50.928;12.116;2023-09-19T10:43:31;98499.13;;;21.25;54.65
18509;BME280;9383;50.928;12.116;2023-09-19T10:46:03;98518.00;;;21.25;54.03
18509;BME280;9383;50.928;12.116;2023-09-19T10:48:34;98513.03;;;21.30;53.31
18509;BME280;9383;50.928;12.116;2023-09-19T10:51:16;98522.56;;;21.34;52.33
18509;BME280;9383;50.928;12.116;2023-09-19T10:56:30;98518.78;;;21.15;50.75
18509;BME280;9383;50.928;12.116;2023-09-19T10:59:18;98508.81;;;21.16;51.25
18509;BME280;9383;50.928;12.116;2023-09-19T11:01:49;98515.09;;;21.16;51.37
18509;BME280;9383;50.928;12.116;2023-09-19T11:04:36;98503.59;;;21.14;51.38
18509;BME280;9383;50.928;12.116;2023-09-19T11:07:24;98517.78;;;21.16;49.68
18509;BME280;9383;50.928;12.116;2023-09-19T11:09:56;98521.47;;;21.15;48.77
18509;BME280;9383;50.928;12.116;2023-09-19T11:14:58;98510.28;;;21.20;48.85
18509;BME280;9383;50.928;12.116;2023-09-19T11:17:36;98455.34;;;20.90;48.87
18509;BME280;9383;50.928;12.116;2023-09-19T11:23:16;98502.25;;;21.30;48.42
18509;BME280;9383;50.928;12.116;2023-09-19T11:25:55;98503.13;;;21.30;46.98
18509;BME280;9383;50.928;12.116;2023-09-19T11:30:50;98504.56;;;21.34;48.29
18509;BME280;9383;50.928;12.116;2023-09-19T11:33:31;98498.75;;;21.39;49.29
18509;BME280;9383;50.928;12.116;2023-09-19T11:36:11;98496.38;;;21.46;49.67
18509;BME280;9383;50.928;12.116;2023-09-19T11:41:41;98499.13;;;21.56;48.75
18509;BME280;9383;50.928;12.116;2023-09-19T11:46:53;98492.22;;;21.63;48.58
18509;BME280;9383;50.928;12.116;2023-09-19T11:49:31;98491.97;;;21.66;48.57
18509;BME280;9383;50.928;12.116;2023-09-19T11:52:00;98510.56;;;21.69;48.94
18509;BME280;9383;50.928;12.116;2023-09-19T11:54:28;98493.25;;;21.72;48.35
18509;BME280;9383;50.928;12.116;2023-09-19T11:57:00;98485.88;;;21.74;48.77
18509;BME280;9383;50.928;12.116;2023-09-19T11:59:31;98486.75;;;21.74;48.69
18509;BME280;9383;50.928;12.116;2023-09-19T12:02:07;98485.75;;;21.75;48.83
18509;BME280;9383;50.928;12.116;2023-09-19T12:04:42;98485.88;;;21.74;48.11
18509;BME280;9383;50.928;12.116;2023-09-19T12:07:14;98487.72;;;21.73;48.33
18509;BME280;9383;50.928;12.116;2023-09-19T12:09:49;98484.19;;;21.73;48.40
18509;BME280;9383;50.928;12.116;2023-09-19T12:12:24;98474.50;;;21.70;47.63
18509;BME280;9383;50.928;12.116;2023-09-19T12:15:00;98487.16;;;21.70;47.92
18509;BME280;9383;50.928;12.116;2023-09-19T12:17:40;98483.72;;;21.68;48.32
18509;BME280;9383;50.928;12.116;2023-09-19T12:20:10;98489.50;;;21.63;45.99
18509;BME280;9383;50.928;12.116;2023-09-19T12:23:03;98487.06;;;21.60;47.17
18509;BME280;9383;50.928;12.116;2023-09-19T12:25:43;98485.34;;;21.59;46.26
18509;BME280;9383;50.928;12.116;2023-09-19T12:28:14;98478.41;;;21.56;46.81
18509;BME280;9383;50.928;12.116;2023-09-19T12:30:43;98477.53;;;21.56;47.46
18509;BME280;9383;50.928;12.116;2023-09-19T12:33:19;98472.16;;;21.56;46.97
18509;BME280;9383;50.928;12.116;2023-09-19T12:35:47;98472.16;;;21.56;47.57
18509;BME280;9383;50.928;12.116;2023-09-19T12:38:28;98475.28;;;21.61;47.94
18509;BME280;9383;50.928;12.116;2023-09-19T12:40:58;98485.09;;;21.62;47.74
18509;BME280;9383;50.928;12.116;2023-09-19T12:43:30;98481.41;;;21.63;46.72
18509;BME280;9383;50.928;12.116;2023-09-19T12:46:04;98471.63;;;21.62;46.13
18509;BME280;9383;50.928;12.116;2023-09-19T12:48:39;98466.78;;;21.65;46.97
18509;BME280;9383;50.928;12.116;2023-09-19T12:51:20;98465.69;;;21.68;46.80
18509;BME280;9383;50.928;12.116;2023-09-19T12:53:57;98465.56;;;21.70;46.28
18509;BME280;9383;50.928;12.116;2023-09-19T12:56:24;98465.41;;;21.71;46.14
18509;BME280;9383;50.928;12.116;2023-09-19T12:58:56;98473.38;;;21.73;46.40
18509;BME280;9383;50.928;12.116;2023-09-19T13:01:25;98471.41;;;21.75;46.31
18509;BME280;9383;50.928;12.116;2023-09-19T13:04:15;98468.56;;;21.76;46.40
18509;BME280;9383;50.928;12.116;2023-09-19T13:06:47;98469.28;;;21.78;46.00
18509;BME280;9383;50.928;12.116;2023-09-19T13:09:16;98471.81;;;21.80;46.37
18509;BME280;9383;50.928;12.116;2023-09-19T13:11:45;98466.19;;;21.83;46.44
18509;BME280;9383;50.928;12.116;2023-09-19T13:14:28;98467.72;;;21.86;45.81
18509;BME280;9383;50.928;12.116;2023-09-19T13:17:06;98475.41;;;21.90;45.64
18509;BME280;9383;50.928;12.116;2023-09-19T13:19:48;98477.00;;;21.93;43.94
18509;BME280;9383;50.928;12.116;2023-09-19T13:22:44;98476.00;;;21.94;44.18
18509;BME280;9383;50.928;12.116;2023-09-19T13:25:22;98475.16;;;21.94;43.63
18509;BME280;9383;50.928;12.116;2023-09-19T13:28:10;98472.03;;;21.98;44.57
18509;BME280;9383;50.928;12.116;2023-09-19T13:30:46;98464.66;;;22.00;43.97
18509;BME280;9383;50.928;12.116;2023-09-19T13:33:23;98467.06;;;22.03;43.38
18509;BME280;9383;50.928;12.116;2023-09-19T13:35:51;98470.63;;;22.04;43.84
18509;BME280;9383;50.928;12.116;2023-09-19T13:38:19;98467.06;;;22.03;43.84
18509;BME280;9383;50.928;12.116;2023-09-19T13:40:48;98469.78;;;22.03;44.54
18509;BME280;9383;50.928;12.116;2023-09-19T13:43:16;98467.06;;;22.03;44.43
18509;BME280;9383;50.928;12.116;2023-09-19T13:45:44;98473.47;;;22.02;43.76
18509;BME280;9383;50.928;12.116;2023-09-19T13:48:11;98461.81;;;22.02;44.12
18509;BME280;9383;50.928;12.116;2023-09-19T13:50:38;98468.31;;;21.99;43.73